Time;durP1;ratioP1;P1;durP2;ratioP2;P2;SDS_P1;SDS_P2;PMS_P1;PMS_P2;Temp;Humidity;BMP_temperature;BMP_pressure;BME280_temperature;BME280_humidity;BME280_pressure;Samples;Min_cycle;Max_cycle;Signal;HPM_P1;HPM_P2
2022/12/14 00:01:22;;;;;;;19.88;9.05;;;;;;;-3.62;87.79;100419.34;5043440;28;20046;-73
2022/12/14 00:03:48;;;;;;;19.83;8.80;;;;;;;-3.63;87.53;100417.59;5033429;28;20397;-72
2022/12/14 00:06:21;;;;;;;17.60;8.02;;;;;;;-3.63;86.93;100412.28;5033245;28;20791;-72
2022/12/14 00:08:46;;;;;;;;;;;;;;;-3.58;88.09;100415.72;5032726;28;20038;-72
2022/12/14 00:11:13;;;;;;;17.15;7.93;;;;;;;-3.57;87.24;100403.31;5038528;28;19919;-72
2022/12/14 00:13:39;;;;;;;18.25;8.60;;;;;;;-3.55;86.39;100401.47;5035018;28;20044;-72
2022/12/14 00:16:16;;;;;;;20.23;8.25;;;;;;;-3.57;86.74;100390.00;5038017;28;20037;-72
2022/12/14 00:18:43;;;;;;;18.55;8.57;;;;;;;-3.59;86.72;100387.38;5037807;28;20052;-72
2022/12/14 00:21:11;;;;;;;14.80;7.88;;;;;;;-3.54;86.12;100392.56;5031094;28;20032;-72
2022/12/14 00:23:37;;;;;;;17.85;7.30;;;;;;;-3.54;85.79;100388.16;5031554;28;20033;-72
2022/12/14 00:26:24;;;;;;;18.98;8.23;;;;;;;-3.53;85.98;100389.03;5032960;28;20037;-72
2022/12/14 00:28:52;;;;;;;21.65;7.65;;;;;;;-3.56;85.64;100389.97;5033421;28;20120;-72
2022/12/14 00:31:17;;;;;;;19.48;7.97;;;;;;;-3.56;85.46;100389.09;5033620;28;20445;-72
2022/12/14 00:33:44;;;;;;;17.15;6.93;;;;;;;-3.55;85.55;100397.03;5036148;28;20067;-72
2022/12/14 00:36:11;;;;;;;19.40;7.18;;;;;;;-3.61;85.36;100386.53;5032371;28;20453;-72
2022/12/14 00:38:37;;;;;;;19.17;7.70;;;;;;;-3.62;85.41;100387.44;5032937;28;20044;-72
2022/12/14 00:41:03;;;;;;;22.77;7.97;;;;;;;-3.66;85.90;100381.31;5052809;28;20090;-72
2022/12/14 00:43:29;;;;;;;19.63;8.15;;;;;;;-3.72;85.66;100373.50;5053263;28;20111;-72
2022/12/14 00:45:55;;;;;;;15.25;7.47;;;;;;;-3.75;86.13;100373.53;5045049;28;20025;-72
2022/12/14 00:48:22;;;;;;;16.33;7.72;;;;;;;-3.78;85.73;100359.44;5030409;28;20495;-72
2022/12/14 00:50:48;;;;;;;15.60;7.55;;;;;;;-3.80;85.41;100355.97;5028727;28;20409;-72
2022/12/14 00:53:15;;;;;;;18.48;8.07;;;;;;;-3.81;85.43;100354.22;5029666;28;20040;-72
2022/12/14 00:55:42;;;;;;;17.85;7.80;;;;;;;-3.85;85.55;100353.41;5028074;28;20536;-73
2022/12/14 00:58:10;;;;;;;14.48;7.50;;;;;;;-3.87;85.08;100344.56;5027593;28;20464;-72
2022/12/14 01:00:36;;;;;;;16.75;7.57;;;;;;;-3.90;84.83;100340.22;5038720;28;20033;-72
2022/12/14 01:03:02;;;;;;;16.75;7.55;;;;;;;-3.90;85.40;100344.66;5028333;28;20499;-72
2022/12/14 01:05:27;;;;;;;15.82;6.93;;;;;;;-3.96;84.69;100340.34;5043857;28;20456;-72
2022/12/14 01:07:53;;;;;;;14.63;7.38;;;;;;;-4.05;84.66;100321.94;5029176;28;20124;-72
2022/12/14 01:10:18;;;;;;;16.90;7.32;;;;;;;-3.96;84.93;100340.34;5030576;28;20090;-73
2022/12/14 01:12:44;;;;;;;16.65;6.88;;;;;;;-3.98;85.42;100339.50;5042234;28;20033;-72
2022/12/14 01:15:09;;;;;;;14.57;7.30;;;;;;;-4.03;85.27;100329.88;5035753;28;20147;-72
2022/12/14 01:17:34;;;;;;;15.40;7.03;;;;;;;-4.06;85.37;100330.81;5037807;28;20135;-72
2022/12/14 01:20:00;;;;;;;15.80;7.25;;;;;;;-4.14;85.49;100325.66;5026720;28;20063;-72
2022/12/14 01:22:26;;;;;;;17.88;7.95;;;;;;;-4.10;85.35;100337.13;5028296;28;20492;-72
2022/12/14 01:24:51;;;;;;;13.77;6.90;;;;;;;-4.09;85.78;100327.34;5030236;28;20112;-72
2022/12/14 01:27:16;;;;;;;19.17;7.13;;;;;;;-4.09;85.64;100322.06;5028649;28;20130;-73
2022/12/14 01:29:42;;;;;;;15.13;6.72;;;;;;;-4.12;85.82;100323.84;5028123;28;20061;-73
2022/12/14 01:32:07;;;;;;;24.50;9.07;;;;;;;-4.15;85.78;100321.28;5029001;28;20488;-72
2022/12/14 01:34:32;;;;;;;16.27;7.35;;;;;;;-4.16;85.42;100321.28;5043243;28;20662;-72
2022/12/14 01:36:58;;;;;;;17.05;7.60;;;;;;;-4.17;85.77;100317.75;5027647;28;20076;-72
2022/12/14 01:39:23;;;;;;;20.70;8.07;;;;;;;-4.20;85.88;100319.59;5040548;28;20061;-72
2022/12/14 01:41:53;;;;;;;19.67;8.77;;;;;;;-4.20;86.05;100322.25;5054540;28;20029;-72
2022/12/14 01:44:18;;;;;;;16.38;7.45;;;;;;;-4.23;86.05;100322.34;5029279;28;20044;-72
2022/12/14 01:47:02;;;;;;;19.17;8.73;;;;;;;-4.25;86.19;100325.00;5029205;28;20024;-72
2022/12/14 01:49:49;;;;;;;16.73;8.50;;;;;;;-4.27;86.17;100325.94;5028072;28;20078;-71
2022/12/14 01:52:20;;;;;;;14.80;6.88;;;;;;;-4.28;86.07;100322.44;5026714;28;20056;-72
2022/12/14 01:54:57;;;;;;;16.52;7.35;;;;;;;-4.28;86.34;100314.47;5027816;28;20099;-72
2022/12/14 01:57:35;;;;;;;18.13;8.02;;;;;;;-4.31;86.44;100325.13;5026967;28;20124;-72
2022/12/14 02:00:01;;;;;;;14.77;6.88;;;;;;;-4.40;86.35;100315.56;5027799;28;20043;-72
2022/12/14 02:02:27;;;;;;;15.75;7.43;;;;;;;-4.34;86.53;100319.00;5027843;28;20092;-72
2022/12/14 02:04:56;;;;;;;20.10;8.57;;;;;;;-4.34;86.11;100314.56;5026885;28;20041;-72
2022/12/14 02:07:24;;;;;;;21.90;8.75;;;;;;;-4.31;86.22;100308.34;5026936;28;20037;-72
2022/12/14 02:09:51;;;;;;;17.17;7.28;;;;;;;-4.29;86.31;100314.47;5028887;28;20030;-72
2022/12/14 02:12:27;;;;;;;16.85;7.50;;;;;;;-4.29;86.39;100304.75;5041928;28;20037;-72
2022/12/14 02:14:54;;;;;;;16.10;7.55;;;;;;;-4.29;85.70;100299.44;5030279;28;20061;-72
2022/12/14 02:17:20;;;;;;;17.40;7.53;;;;;;;-4.27;86.05;100302.06;5028937;28;20528;-72
2022/12/14 02:19:48;;;;;;;22.15;9.07;;;;;;;-4.28;86.12;100293.22;5028285;28;20095;-72
2022/12/14 02:22:31;;;;;;;18.27;7.50;;;;;;;-4.26;86.29;100307.31;5043201;28;20033;-72
2022/12/14 02:25:18;;;;;;;18.00;7.97;;;;;;;-4.28;86.54;100303.84;5041776;28;20540;-72
2022/12/14 02:28:21;;;;;;;15.30;6.70;;;;;;;-4.29;85.86;100299.44;5026895;28;20077;-72
2022/12/14 02:31:18;;;;;;;14.73;6.80;;;;;;;-4.29;86.31;100287.91;5028073;28;20037;-72
2022/12/14 02:33:55;;;;;;;15.75;6.70;;;;;;;-4.32;86.34;100282.69;5041261;28;20037;-72
2022/12/14 02:36:41;;;;;;;14.35;7.38;;;;;;;-4.34;86.12;100281.84;5042889;28;20041;-72
2022/12/14 02:39:28;;;;;;;13.82;7.30;;;;;;;-4.36;86.26;100280.09;5027794;28;20041;-72
2022/12/14 02:42:07;;;;;;;13.68;7.30;;;;;;;-4.40;86.16;100281.06;5045936;28;20033;-72
2022/12/14 02:44:55;;;;;;;17.63;7.50;;;;;;;-4.38;86.00;100281.91;5034843;28;20048;-72
2022/12/14 02:47:38;;;;;;;14.40;7.03;;;;;;;-4.36;86.02;100281.88;5041800;28;20523;-72
2022/12/14 02:50:30;;;;;;;20.80;7.88;;;;;;;-4.38;86.22;100283.69;5026313;28;20057;-72
2022/12/14 02:53:14;;;;;;;15.07;6.50;;;;;;;-4.37;86.17;100280.13;5042684;28;20048;-72
2022/12/14 02:55:45;;;;;;;14.65;7.55;;;;;;;-4.41;86.03;100273.13;5041898;28;20348;-72
2022/12/14 02:58:22;;;;;;;18.08;7.40;;;;;;;-4.42;86.33;100268.75;5027708;28;20033;-72
2022/12/14 03:00:48;;;;;;;13.90;6.82;;;;;;;-4.40;86.34;100274.88;5034884;28;20037;-72
2022/12/14 03:03:13;;;;;;;17.83;6.88;;;;;;;-4.37;85.88;100269.50;5026666;28;20022;-72
2022/12/14 03:05:39;;;;;;;18.13;7.38;;;;;;;-4.34;86.04;100277.41;5054738;28;20044;-72
2022/12/14 03:08:11;;;;;;;12.82;6.50;;;;;;;-4.34;86.16;100280.06;5067046;28;20036;-72
2022/12/14 03:10:55;;;;;;;14.75;7.97;;;;;;;-4.33;86.23;100284.47;5064549;28;20132;-72
2022/12/14 03:13:23;;;;;;;15.68;6.95;;;;;;;-4.31;85.89;100280.00;5035567;28;20052;-72
2022/12/14 03:15:58;;;;;;;17.45;7.07;;;;;;;-4.30;86.18;100273.78;5026050;28;20033;-72
2022/12/14 03:18:26;;;;;;;15.10;7.03;;;;;;;-4.27;86.12;100280.81;5025870;28;20228;-72
2022/12/14 03:20:56;;;;;;;17.88;8.25;;;;;;;-4.28;85.92;100282.59;5024619;28;20033;-72
2022/12/14 03:23:27;;;;;;;14.43;7.22;;;;;;;-4.23;85.73;100269.22;5026620;28;20030;-72
2022/12/14 03:26:01;;;;;;;11.93;6.50;;;;;;;-4.21;86.46;100268.28;5025582;28;20481;-72
2022/12/14 03:28:38;;;;;;;15.55;6.65;;;;;;;-4.21;85.93;100260.31;5026525;28;20084;-72
2022/12/14 03:31:08;;;;;;;17.27;6.75;;;;;;;-4.19;86.00;100258.50;5026471;28;20037;-72
2022/12/14 03:33:36;;;;;;;15.00;7.25;;;;;;;-4.21;85.99;100244.38;5025489;28;20060;-72
2022/12/14 03:36:15;;;;;;;20.13;8.23;;;;;;;-4.18;86.15;100238.13;5024620;28;20038;-72
2022/12/14 03:38:44;;;;;;;15.45;8.00;;;;;;;-4.20;85.96;100238.16;5029219;28;20053;-72
2022/12/14 03:41:19;;;;;;;16.55;7.20;;;;;;;-4.15;86.07;100238.94;5032170;28;20033;-72
2022/12/14 03:44:06;;;;;;;17.73;7.57;;;;;;;-4.15;85.81;100235.38;5046796;28;20068;-72
2022/12/14 03:46:56;;;;;;;15.93;7.60;;;;;;;-4.14;86.53;100229.19;5028478;28;20457;-72
2022/12/14 03:49:54;;;;;;;14.38;7.72;;;;;;;-4.14;86.58;100235.38;5026086;28;20366;-72
2022/12/14 03:52:24;;;;;;;13.23;7.25;;;;;;;-4.15;86.90;100233.63;5027416;28;20080;-72
2022/12/14 03:55:11;;;;;;;15.52;7.15;;;;;;;-4.15;85.99;100235.38;5027005;28;20069;-72
2022/12/14 03:57:58;;;;;;;16.27;7.82;;;;;;;-4.13;86.29;100237.13;5041579;28;20048;-72
2022/12/14 04:00:26;;;;;;;14.18;7.28;;;;;;;-4.13;86.15;100225.63;5026694;28;20053;-72
2022/12/14 04:02:57;;;;;;;15.75;7.20;;;;;;;-4.12;86.55;100232.66;5026864;28;20112;-72
2022/12/14 04:05:36;;;;;;;17.95;8.23;;;;;;;-4.12;86.16;100220.25;5025832;28;20488;-72
2022/12/14 04:08:37;;;;;;;13.80;7.85;;;;;;;-4.11;86.25;100218.47;5026262;28;20068;-72
2022/12/14 04:19:56;;;;;;;18.85;9.15;;;;;;;-4.11;87.03;100198.09;5025784;28;20438;-72
2022/12/14 04:22:26;;;;;;;15.15;7.25;;;;;;;-4.11;87.52;100198.09;5033186;28;20128;-72
2022/12/14 04:28:00;;;;;;;15.77;7.43;;;;;;;-4.10;87.51;100191.03;5045342;28;20041;-72
2022/12/14 04:30:31;;;;;;;17.05;8.38;;;;;;;-4.12;86.86;100191.06;5036047;28;20040;-72
2022/12/14 04:33:45;;;;;;;16.08;7.97;;;;;;;-4.11;87.31;100195.44;5035375;28;20037;-72
2022/12/14 04:35:52;;;;;;;15.57;7.00;;;;;;;-4.10;87.20;100185.72;5029516;28;20034;-72
2022/12/14 04:38:35;;;;;;;21.13;9.23;;;;;;;-4.10;87.35;100185.72;5030204;28;20053;-72
2022/12/14 04:41:04;;;;;;;;;;;;;;;-4.09;87.70;100179.50;5030882;28;20036;-73
2022/12/14 04:43:35;;;;;;;17.55;8.32;;;;;;;-4.14;87.76;100168.97;5045101;28;19913;-72
2022/12/14 04:46:07;;;;;;;15.70;6.97;;;;;;;-4.13;88.41;100173.38;5043641;28;20033;-72
2022/12/14 04:48:57;;;;;;;16.98;6.72;;;;;;;-4.14;88.62;100168.97;5041351;28;20553;-72
2022/12/14 04:51:45;;;;;;;17.08;7.72;;;;;;;-4.14;87.95;100168.09;5028926;28;20033;-72
2022/12/14 04:54:25;;;;;;;21.90;8.00;;;;;;;-4.16;88.67;100161.94;5029744;28;20821;-72
2022/12/14 04:57:19;;;;;;;15.82;8.18;;;;;;;-4.16;88.00;100173.44;5029704;28;20071;-72
2022/12/14 04:59:46;;;;;;;14.85;7.32;;;;;;;-4.15;87.88;100164.59;5028947;28;20473;-72
2022/12/14 05:02:23;;;;;;;15.93;7.68;;;;;;;-4.17;87.68;100162.88;5029284;28;20393;-72
2022/12/14 05:05:13;;;;;;;18.80;8.25;;;;;;;-4.16;87.68;100162.81;5028748;28;20065;-72
2022/12/14 05:07:46;;;;;;;15.70;7.40;;;;;;;-4.17;87.45;100163.72;5011929;28;20566;-72
2022/12/14 05:10:17;;;;;;;21.88;8.32;;;;;;;-4.17;87.60;100161.06;5029167;28;20438;-72
2022/12/14 05:12:51;;;;;;;14.45;7.25;;;;;;;-4.17;87.54;100155.75;5038340;28;20034;-72
2022/12/14 05:15:30;;;;;;;21.52;9.05;;;;;;;-4.19;87.74;100156.72;5027283;28;20148;-72
2022/12/14 05:18:01;;;;;;;17.80;7.75;;;;;;;-4.16;87.42;100151.31;5029202;28;20038;-72
2022/12/14 05:20:26;;;;;;;18.23;7.20;;;;;;;-4.20;87.39;100147.84;5028652;28;20403;-72
2022/12/14 05:22:51;;;;;;;16.85;7.10;;;;;;;-4.20;87.50;100147.84;5027827;28;20018;-72
2022/12/14 05:25:17;;;;;;;20.02;8.00;;;;;;;-4.17;87.67;100145.13;5028460;28;20501;-72
2022/12/14 05:27:42;;;;;;;16.60;7.68;;;;;;;-4.15;87.19;100147.75;5028691;28;20396;-73
2022/12/14 05:30:08;;;;;;;19.45;8.18;;;;;;;-4.15;87.03;100146.00;5027304;28;20111;-73
2022/12/14 05:32:34;;;;;;;12.77;7.10;;;;;;;-4.14;87.14;100146.88;5028193;28;20041;-72
2022/12/14 05:35:01;;;;;;;19.38;9.05;;;;;;;-4.14;86.89;100142.41;5033725;28;20044;-72
2022/12/14 05:37:26;;;;;;;17.63;7.63;;;;;;;-4.14;87.04;100144.22;5027264;28;20057;-72
2022/12/14 05:39:51;;;;;;;13.77;7.20;;;;;;;-4.14;87.23;100144.22;5029118;28;20040;-72
2022/12/14 05:42:17;;;;;;;15.95;7.93;;;;;;;-4.14;87.96;100141.56;5043884;28;20090;-72
2022/12/14 05:44:42;;;;;;;16.42;8.15;;;;;;;-4.18;87.89;100147.84;5042294;28;20017;-72
2022/12/14 05:47:07;;;;;;;16.95;7.85;;;;;;;-4.19;88.58;100143.44;5043274;28;20131;-72
2022/12/14 05:49:33;;;;;;;20.42;8.18;;;;;;;-4.20;88.07;100139.03;5043260;28;20033;-72
2022/12/14 05:51:58;;;;;;;17.58;8.55;;;;;;;-4.20;88.27;100139.03;5046740;28;20315;-72
2022/12/14 05:54:24;;;;;;;16.63;8.13;;;;;;;-4.20;88.79;100152.31;5047440;28;20021;-72
2022/12/14 05:56:49;;;;;;;17.80;8.52;;;;;;;-4.23;89.28;100142.63;5045033;28;20041;-72
2022/12/14 05:59:16;;;;;;;19.63;8.30;;;;;;;-4.21;89.16;100134.63;5028439;28;20036;-73
2022/12/14 06:01:43;;;;;;;13.35;8.02;;;;;;;-4.21;89.20;100137.28;5028737;28;20033;-72
2022/12/14 06:04:10;;;;;;;17.38;8.52;;;;;;;-4.22;89.31;100135.53;5026687;28;20028;-72
2022/12/14 06:06:36;;;;;;;14.38;7.32;;;;;;;-4.26;89.44;100125.91;5038145;28;20028;-72
2022/12/14 06:09:06;;;;;;;16.55;7.60;;;;;;;-4.25;89.57;100138.25;5026357;28;20137;-72
2022/12/14 06:11:31;;;;;;;15.10;7.32;;;;;;;-4.27;90.14;100132.13;5040914;28;20036;-72
2022/12/14 06:13:56;;;;;;;15.52;7.50;;;;;;;-4.28;89.49;100127.72;5038897;28;20527;-72
2022/12/14 06:16:24;;;;;;;24.55;8.63;;;;;;;-4.27;88.98;100122.38;5035383;28;20064;-72
2022/12/14 06:18:52;;;;;;;18.33;8.13;;;;;;;-4.25;88.84;100125.84;5028235;28;20744;-72
2022/12/14 06:21:19;;;;;;;19.80;8.43;;;;;;;-4.28;89.23;100120.63;5026626;28;20044;-72
2022/12/14 06:23:45;;;;;;;19.92;7.45;;;;;;;-4.28;89.20;100122.41;5027910;28;20052;-72
2022/12/14 06:26:12;;;;;;;13.15;7.18;;;;;;;-4.32;88.94;100126.94;5026546;28;20116;-72
2022/12/14 06:28:38;;;;;;;17.35;7.72;;;;;;;-4.32;88.88;100126.06;5038012;28;20489;-72
2022/12/14 06:31:05;;;;;;;17.42;7.82;;;;;;;-4.35;88.74;100126.97;5034737;28;20041;-72
2022/12/14 06:33:34;;;;;;;20.55;7.40;;;;;;;-4.33;89.47;100127.84;5037522;28;20446;-72
2022/12/14 06:36:01;;;;;;;18.83;7.47;;;;;;;-4.34;89.68;100125.19;5026878;28;20040;-72
2022/12/14 06:38:27;;;;;;;16.55;7.57;;;;;;;-4.37;90.19;100135.00;5030336;28;20057;-72
2022/12/14 06:40:52;;;;;;;15.88;7.13;;;;;;;-4.37;89.54;100136.78;5030360;28;20033;-72
2022/12/14 06:43:18;;;;;;;16.17;7.90;;;;;;;-4.41;89.67;100133.31;5025553;28;20032;-72
2022/12/14 06:45:43;;;;;;;19.73;8.43;;;;;;;-4.41;89.67;100137.75;5027461;28;20033;-72
2022/12/14 06:48:09;;;;;;;16.00;7.80;;;;;;;-4.42;89.46;100130.72;5026956;28;20485;-72
2022/12/14 06:50:34;;;;;;;17.77;7.65;;;;;;;-4.42;89.84;100133.38;5025876;28;20026;-72
2022/12/14 06:53:00;;;;;;;16.70;8.25;;;;;;;-4.43;89.15;100135.16;5027568;28;20037;-72
2022/12/14 06:55:26;;;;;;;18.33;8.45;;;;;;;-4.42;89.01;100131.56;5027768;28;20099;-72
2022/12/14 06:57:53;;;;;;;17.00;7.03;;;;;;;-4.42;89.84;100133.38;5025967;28;20469;-72
2022/12/14 07:00:20;;;;;;;16.83;8.25;;;;;;;-4.44;89.66;100141.34;5027693;28;20033;-72
2022/12/14 07:02:46;;;;;;;19.10;7.80;;;;;;;-4.47;89.93;100144.09;5027491;28;20628;-72
2022/12/14 07:05:13;;;;;;;18.52;8.27;;;;;;;-4.50;90.33;100143.28;5024502;28;20064;-72
2022/12/14 07:07:38;;;;;;;17.63;8.07;;;;;;;-4.53;90.72;100148.63;5027443;28;20562;-72
2022/12/14 07:10:05;;;;;;;21.23;9.00;;;;;;;-4.57;91.04;100147.84;5027077;28;20116;-72
2022/12/14 07:12:30;;;;;;;20.23;7.93;;;;;;;-4.56;90.59;100140.75;5033346;28;20041;-72
2022/12/14 07:14:56;;;;;;;17.13;7.32;;;;;;;-4.55;90.78;100139.84;5026715;28;20382;-72
2022/12/14 07:17:21;;;;;;;16.52;9.00;;;;;;;-4.56;90.92;100151.38;5041365;28;20033;-72
2022/12/14 07:19:47;;;;;;;15.90;7.70;;;;;;;-4.63;91.56;100146.19;5026524;28;20531;-72
2022/12/14 07:22:13;;;;;;;18.08;7.15;;;;;;;-4.65;91.27;100149.78;5026740;28;20053;-72
2022/12/14 07:24:39;;;;;;;21.30;7.82;;;;;;;-4.65;91.33;100145.34;5025408;28;20111;-72
2022/12/14 07:27:05;;;;;;;22.13;7.85;;;;;;;-4.66;90.39;100148.94;5026591;28;20188;-72
2022/12/14 07:29:30;;;;;;;18.92;7.75;;;;;;;-4.66;90.74;100148.94;5025804;28;20046;-72
2022/12/14 07:31:56;;;;;;;18.15;7.93;;;;;;;-4.67;90.80;100154.25;5035320;28;20060;-72
2022/12/14 07:34:21;;;;;;;14.50;7.18;;;;;;;-4.71;90.65;100152.56;5037864;28;20033;-72
2022/12/14 07:36:52;;;;;;;18.83;8.07;;;;;;;-4.74;90.90;100156.16;5027130;28;20125;-72
2022/12/14 07:39:18;;;;;;;20.13;7.57;;;;;;;-4.76;90.77;100151.78;5027737;28;20103;-72
2022/12/14 07:41:46;;;;;;;19.67;7.70;;;;;;;-4.79;90.51;100150.09;5036943;28;20496;-72
2022/12/14 07:44:19;;;;;;;14.88;7.97;;;;;;;-4.83;90.68;100150.19;5046402;28;20025;-72
2022/12/14 07:46:45;;;;;;;17.83;7.38;;;;;;;-4.84;90.70;100153.75;5026407;28;20052;-72
2022/12/14 07:49:11;;;;;;;17.90;8.00;;;;;;;-4.88;91.10;100152.94;5036054;28;20386;-72
2022/12/14 07:51:40;;;;;;;19.45;8.00;;;;;;;-4.92;91.03;100159.19;5026101;28;20098;-72
2022/12/14 07:54:06;;;;;;;21.70;8.23;;;;;;;-4.98;90.72;100156.69;5009363;28;20469;-72
2022/12/14 07:56:34;;;;;;;15.75;7.47;;;;;;;-5.01;91.18;100154.97;5030905;28;20114;-72
2022/12/14 07:59:02;;;;;;;16.77;7.20;;;;;;;-5.05;90.81;100147.97;5030608;28;20044;-72
2022/12/14 08:01:30;;;;;;;23.23;7.55;;;;;;;-5.10;91.06;100157.78;5030371;28;20022;-72
2022/12/14 08:03:58;;;;;;;16.33;7.95;;;;;;;-5.07;91.10;100173.66;5030168;28;20511;-71
2022/12/14 08:06:26;;;;;;;15.77;7.68;;;;;;;-5.11;91.18;100166.66;5030231;28;20108;-72
2022/12/14 08:08:52;;;;;;;14.80;7.68;;;;;;;-5.15;91.49;100165.84;5029458;28;20132;-72
2022/12/14 08:11:21;;;;;;;21.73;9.48;;;;;;;-5.16;91.24;100168.53;5030338;28;20496;-72
2022/12/14 08:13:46;;;;;;;19.30;7.80;;;;;;;-5.16;91.63;100169.41;5030921;28;20493;-72
2022/12/14 08:16:14;;;;;;;15.57;7.82;;;;;;;-5.19;91.80;100172.09;5028857;28;20110;-72
2022/12/14 08:18:40;;;;;;;25.08;8.43;;;;;;;-5.21;91.69;100176.56;5029768;28;20493;-72
2022/12/14 08:21:07;;;;;;;22.05;8.40;;;;;;;-5.21;91.60;100183.66;5029711;28;20041;-72
2022/12/14 08:23:33;;;;;;;18.98;8.48;;;;;;;-5.23;91.56;100182.78;5029889;28;20509;-72
2022/12/14 08:26:00;;;;;;;18.80;8.25;;;;;;;-5.23;91.81;100177.47;5030413;28;20569;-72
2022/12/14 08:28:27;;;;;;;23.85;8.70;;;;;;;-5.23;91.74;100177.47;5030079;28;20033;-72
2022/12/14 08:30:52;;;;;;;20.17;8.77;;;;;;;-5.26;91.47;100183.75;5029767;28;20472;-72
2022/12/14 08:33:20;;;;;;;18.05;8.15;;;;;;;-5.30;91.66;100176.75;5028281;28;20120;-72
2022/12/14 08:35:46;;;;;;;17.80;8.23;;;;;;;-5.31;92.00;100184.72;5029857;28;20037;-72
2022/12/14 08:38:12;;;;;;;19.77;8.88;;;;;;;-5.35;91.96;100186.56;5029666;28;20057;-72
2022/12/14 08:40:38;;;;;;;19.45;9.95;;;;;;;-5.39;92.20;100188.38;5030450;28;20113;-72
2022/12/14 08:43:05;;;;;;;16.08;8.75;;;;;;;-5.40;92.28;100185.78;5049768;28;20110;-72
2022/12/14 08:45:30;;;;;;;18.40;8.40;;;;;;;-5.40;92.19;100183.13;5047388;28;20021;-72
2022/12/14 08:47:57;;;;;;;17.23;9.45;;;;;;;-5.39;92.05;100176.91;5042751;28;20507;-72
2022/12/14 08:50:22;;;;;;;19.83;8.50;;;;;;;-5.40;92.29;100177.81;5029742;28;20037;-72
2022/12/14 08:52:48;;;;;;;22.48;10.50;;;;;;;-5.38;92.32;100176.88;5030117;28;20040;-72
2022/12/14 08:55:13;;;;;;;18.58;9.80;;;;;;;-5.39;92.08;100176.91;5030044;28;20473;-72
2022/12/14 08:57:39;;;;;;;25.23;10.05;;;;;;;-5.38;92.10;100173.34;5030029;28;20508;-72
2022/12/14 09:00:06;;;;;;;25.83;9.50;;;;;;;-5.40;92.66;100176.03;5046110;28;20064;-72
2022/12/14 09:02:31;;;;;;;20.27;8.90;;;;;;;-5.42;92.50;100176.94;5041232;28;20034;-72
2022/12/14 09:04:56;;;;;;;20.30;9.68;;;;;;;-5.44;92.77;100179.63;5028088;28;20040;-72
2022/12/14 09:07:21;;;;;;;19.85;9.48;;;;;;;-5.43;92.65;100184.03;5037274;28;20041;-71
2022/12/14 09:09:47;;;;;;;16.65;9.07;;;;;;;-5.38;92.34;100186.59;5030121;28;20107;-72
2022/12/14 09:12:12;;;;;;;18.98;9.20;;;;;;;-5.31;92.78;100190.03;5034161;28;20477;-72
2022/12/14 09:14:37;;;;;;;23.58;10.02;;;;;;;-5.27;92.65;100192.59;5029232;28;20476;-72
2022/12/14 09:17:03;;;;;;;25.55;10.40;;;;;;;-5.20;92.11;100194.22;5044893;28;20485;-72
2022/12/14 09:19:29;;;;;;;20.02;9.27;;;;;;;-5.11;91.86;100201.13;5027037;28;20034;-72
2022/12/14 09:21:54;;;;;;;20.80;9.27;;;;;;;-5.04;91.45;100200.09;5037015;28;20021;-72
2022/12/14 09:24:21;;;;;;;18.75;10.10;;;;;;;-5.01;91.31;100210.66;5038697;28;20037;-72
2022/12/14 09:26:46;;;;;;;21.70;8.75;;;;;;;-4.96;90.91;100205.25;5027982;28;20059;-72
2022/12/14 09:29:13;;;;;;;20.48;9.07;;;;;;;-4.94;90.96;100208.78;5027829;28;20064;-72
2022/12/14 09:31:39;;;;;;;23.17;9.43;;;;;;;-4.92;90.58;100205.16;5028796;28;20025;-72
2022/12/14 09:34:05;;;;;;;18.17;8.55;;;;;;;-4.86;90.31;100209.47;5026608;28;20058;-72
2022/12/14 09:36:30;;;;;;;20.88;9.13;;;;;;;-4.81;90.33;100204.06;5062211;28;20081;-72
2022/12/14 09:38:56;;;;;;;20.58;9.65;;;;;;;-4.75;90.11;100204.84;5050383;28;20097;-72
2022/12/14 09:41:33;;;;;;;17.10;8.23;;;;;;;-4.66;89.75;100206.44;5058443;28;20033;-72
2022/12/14 09:44:24;;;;;;;16.05;8.25;;;;;;;-4.57;89.79;100200.03;5026136;28;20071;-73
2022/12/14 09:47:12;;;;;;;16.75;8.48;;;;;;;-4.50;90.57;100194.56;5028912;28;20041;-73
2022/12/14 09:49:43;;;;;;;15.85;8.20;;;;;;;-4.40;89.36;100192.59;5027096;28;20037;-72
2022/12/14 09:52:51;;;;;;;19.17;7.85;;;;;;;-4.32;89.74;100189.78;5027405;28;20152;-72
2022/12/14 09:55:25;;;;;;;16.77;7.97;;;;;;;-4.25;88.81;100200.19;5028966;28;20128;-72
2022/12/14 09:58:16;;;;;;;20.92;8.45;;;;;;;-4.18;89.69;100207.13;5027257;28;20103;-72
2022/12/14 10:00:47;;;;;;;11.38;6.75;;;;;;;-4.12;87.95;100199.00;5027641;28;20508;-73
2022/12/14 10:03:29;;;;;;;11.85;6.47;;;;;;;-4.03;87.80;100197.94;5038683;28;20499;-72
2022/12/14 10:06:21;;;;;;;14.00;7.78;;;;;;;-3.96;88.89;100191.59;5045652;28;20052;-73
2022/12/14 10:09:07;;;;;;;15.15;8.18;;;;;;;-3.88;87.73;100197.56;5034757;28;20037;-72
2022/12/14 10:11:51;;;;;;;15.05;7.18;;;;;;;-3.79;87.58;100196.47;5036037;28;20115;-72
2022/12/14 10:14:22;;;;;;;15.55;7.60;;;;;;;-3.70;87.09;100184.75;5044069;28;20075;-73
2022/12/14 10:17:02;;;;;;;16.45;7.40;;;;;;;-3.62;87.13;100188.97;5027855;28;20041;-73
2022/12/14 10:19:40;;;;;;;16.52;7.00;;;;;;;-3.53;86.43;100190.53;5038027;28;20480;-73
2022/12/14 10:22:17;;;;;;;18.48;8.38;;;;;;;-3.46;86.54;100189.44;5043280;28;20041;-73
2022/12/14 10:25:04;;;;;;;19.65;7.65;;;;;;;-3.40;86.03;100191.97;5027762;28;20509;-73
2022/12/14 10:27:32;;;;;;;17.58;6.85;;;;;;;-3.35;85.11;100189.19;5028047;28;20037;-72
2022/12/14 10:30:13;;;;;;;17.45;7.50;;;;;;;-3.25;84.38;100185.34;5026700;28;20037;-72
2022/12/14 10:32:46;;;;;;;15.73;6.93;;;;;;;-3.17;83.70;100190.44;5034131;28;20037;-72
2022/12/14 10:35:17;;;;;;;16.38;7.47;;;;;;;-3.10;84.32;100192.91;5026540;28;20077;-72
2022/12/14 10:37:52;;;;;;;19.50;7.15;;;;;;;-3.04;84.96;100199.84;5045546;28;20141;-72
2022/12/14 10:40:25;;;;;;;15.18;7.10;;;;;;;-2.97;83.68;100197.91;5043091;28;20511;-72
2022/12/14 10:42:56;;;;;;;;;;;;;;;-2.90;85.70;100199.47;5046510;28;20044;-72
2022/12/14 10:45:50;;;;;;;14.93;6.55;;;;;;;-2.83;84.05;100201.94;5039437;28;19964;-71
2022/12/14 10:48:37;;;;;;;14.70;6.60;;;;;;;-2.77;83.75;100205.31;5025979;28;20056;-72
2022/12/14 10:51:06;;;;;;;15.35;6.25;;;;;;;-2.71;83.86;100207.81;5041884;28;20464;-71
2022/12/14 10:53:50;;;;;;;15.82;6.60;;;;;;;-2.65;82.89;100202.31;5027242;28;20033;-71
2022/12/14 10:56:23;;;;;;;13.27;6.97;;;;;;;-2.56;81.67;100199.41;5026610;28;20489;-71
2022/12/14 10:59:16;;;;;;;14.98;6.57;;;;;;;-2.49;81.99;100202.75;5049534;28;20043;-72
2022/12/14 11:01:43;;;;;;;;;;;;;;;-2.44;84.49;100203.47;5044419;28;20168;-72
2022/12/14 11:04:28;;;;;;;12.90;6.55;;;;;;;-2.42;81.76;100197.19;5027039;28;20367;-72
2022/12/14 11:06:54;;;;;;;14.38;5.80;;;;;;;-2.39;80.42;100196.22;5026245;28;20041;-72
2022/12/14 11:09:22;;;;;;;14.27;7.43;;;;;;;-2.37;79.60;100197.06;5028143;28;20400;-72
2022/12/14 11:11:47;;;;;;;13.68;6.78;;;;;;;-2.32;81.46;100195.13;5036959;28;20368;-72
2022/12/14 11:14:21;;;;;;;17.85;6.93;;;;;;;-2.24;79.46;100200.19;5041459;28;20030;-72
2022/12/14 11:16:46;;;;;;;13.68;7.53;;;;;;;-2.20;80.83;100199.19;5027514;28;20548;-72
2022/12/14 11:19:18;;;;;;;16.15;7.68;;;;;;;-2.06;83.32;100194.31;5027409;28;20076;-72
2022/12/14 11:21:43;;;;;;;18.40;8.70;;;;;;;-1.97;80.00;100193.16;5025383;28;20519;-72
2022/12/14 11:24:27;;;;;;;19.95;7.85;;;;;;;-1.92;80.46;100202.75;5028225;28;20041;-72
2022/12/14 11:26:57;;;;;;;15.40;7.32;;;;;;;-1.89;78.49;100205.31;5047280;28;20516;-72
2022/12/14 11:29:30;;;;;;;14.82;7.07;;;;;;;-1.84;78.94;100205.16;5046485;28;20074;-72
2022/12/14 11:31:56;;;;;;;18.95;7.07;;;;;;;-1.78;78.91;100198.75;5027313;28;20055;-72
2022/12/14 11:34:38;;;;;;;13.82;6.93;;;;;;;-1.73;78.15;100202.16;5026269;28;20042;-71
2022/12/14 11:37:23;;;;;;;16.77;7.38;;;;;;;-1.71;78.64;100201.19;5026521;28;20140;-72
2022/12/14 11:39:51;;;;;;;18.77;7.63;;;;;;;-1.64;81.72;100194.72;5025854;28;20044;-72
2022/12/14 11:42:18;;;;;;;14.07;7.00;;;;;;;-1.46;80.40;100189.69;5041882;28;20029;-72
2022/12/14 11:44:46;;;;;;;16.42;7.38;;;;;;;-1.44;77.63;100194.06;5041232;28;20048;-72
2022/12/14 11:47:14;;;;;;;13.75;7.00;;;;;;;-1.44;76.60;100193.22;5026499;28;20034;-72